Time;durP1;ratioP1;P1;durP2;ratioP2;P2;SDS_P1;SDS_P2;PMS_P1;PMS_P2;Temp;Humidity;BMP_temperature;BMP_pressure;BME280_temperature;BME280_humidity;BME280_pressure;Samples;Min_cycle;Max_cycle;Signal;HPM_P1;HPM_P2
2022/01/25 00:30:11;;;;;;;36.00;17.63;;;;;;;-2.92;100.00;102835.88;4957751;29;20023;-71
2022/01/25 00:32:57;;;;;;;32.78;16.55;;;;;;;-2.84;100.00;102834.75;4958499;28;20338;-71
2022/01/25 00:35:43;;;;;;;37.08;17.85;;;;;;;-3.02;100.00;102833.47;4957513;28;20027;-72
2022/01/25 00:38:29;;;;;;;36.42;18.60;;;;;;;-2.90;100.00;102836.91;4958438;28;20027;-71
2022/01/25 00:41:16;;;;;;;40.28;18.83;;;;;;;-2.63;100.00;102831.09;4957813;29;20035;-72
2022/01/25 00:55:31;;;;;;;32.33;16.60;;;;;;;-2.64;100.00;102826.75;5304091;23;20110;-72
2022/01/25 00:58:16;;;;;;;34.78;17.20;;;;;;;-2.53;100.00;102824.13;4958119;28;20034;-71
2022/01/25 01:07:47;;;;;;;36.03;16.77;;;;;;;-3.03;100.00;102830.00;5417144;23;20055;-72
2022/01/25 01:10:33;;;;;;;36.40;17.70;;;;;;;-3.20;100.00;102829.59;4958019;28;20027;-72
2022/01/25 01:13:49;;;;;;;35.05;18.38;;;;;;;-2.93;100.00;102826.41;4943805;29;20027;-72
2022/01/25 01:38:23;;;;;;;34.72;17.60;;;;;;;-2.78;100.00;102791.59;4957277;29;20042;-72
2022/01/25 01:55:12;;;;;;;32.35;17.98;;;;;;;-2.90;100.00;102772.78;5906346;23;20014;-72
2022/01/25 01:57:58;;;;;;;35.78;17.63;;;;;;;-3.04;100.00;102773.50;4924544;29;20050;-72
2022/01/25 02:01:03;;;;;;;36.28;17.67;;;;;;;-2.87;100.00;102779.00;4924584;29;20032;-72
2022/01/25 02:15:09;;;;;;;31.77;16.75;;;;;;;-2.84;100.00;102762.94;4954725;29;20043;-72
2022/01/25 02:23:56;;;;;;;32.35;16.30;;;;;;;-2.61;100.00;102748.31;4936373;29;20042;-73
2022/01/25 02:26:42;;;;;;;33.70;17.35;;;;;;;-2.79;100.00;102743.63;4921942;29;20023;-72
2022/01/25 02:33:11;;;;;;;33.55;17.48;;;;;;;-3.21;100.00;102738.13;4937610;29;20031;-72
2022/01/25 02:35:59;;;;;;;35.08;17.38;;;;;;;-3.08;100.00;102735.63;4921992;29;20034;-72
2022/01/25 02:38:44;;;;;;;35.83;17.17;;;;;;;-2.80;100.00;102734.16;4936299;29;20031;-72
2022/01/25 02:41:30;;;;;;;36.00;17.00;;;;;;;-2.72;100.00;102733.00;4937151;29;20106;-73
2022/01/25 02:44:23;;;;;;;32.22;17.23;;;;;;;-2.79;100.00;102731.69;4936085;29;20050;-72
2022/01/25 02:50:14;;;;;;;34.70;17.20;;;;;;;-2.86;100.00;102731.19;4936319;29;20461;-73
2022/01/25 02:53:00;;;;;;;37.33;16.80;;;;;;;-2.75;100.00;102737.91;4936502;29;20460;-71
2022/01/25 02:55:45;;;;;;;32.50;17.05;;;;;;;-2.75;100.00;102720.84;4936433;29;20373;-72
2022/01/25 02:58:31;;;;;;;32.38;16.92;;;;;;;-2.93;100.00;102722.16;4936427;29;20027;-72
2022/01/25 03:01:18;;;;;;;37.85;18.33;;;;;;;-2.75;100.00;102714.81;4937426;29;20130;-73
2022/01/25 03:04:05;;;;;;;36.35;18.33;;;;;;;-3.06;100.00;102714.41;4937006;29;20046;-73
2022/01/25 03:06:51;;;;;;;33.92;17.40;;;;;;;-2.80;100.00;102711.06;4936865;29;20032;-73
2022/01/25 03:09:41;;;;;;;36.28;18.30;;;;;;;-2.88;100.00;102719.91;4936211;29;20027;-73
2022/01/25 03:12:38;;;;;;;37.25;18.50;;;;;;;-3.14;100.00;102712.13;4935966;29;20460;-73
2022/01/25 03:15:31;;;;;;;34.17;16.83;;;;;;;-2.76;100.00;102720.75;4936480;29;20488;-73
2022/01/25 03:21:20;;;;;;;31.70;16.67;;;;;;;-2.42;100.00;102709.38;4935594;29;20020;-73
2022/01/25 03:24:07;;;;;;;34.78;17.80;;;;;;;-2.92;100.00;102698.31;4935473;29;20024;-71
2022/01/25 03:26:53;;;;;;;34.97;17.73;;;;;;;-2.97;100.00;102693.66;4936309;29;20054;-72
2022/01/25 03:29:38;;;;;;;36.80;18.00;;;;;;;-3.40;100.00;102694.06;4936737;29;20023;-72
2022/01/25 03:32:24;;;;;;;35.78;17.40;;;;;;;-3.57;100.00;102687.78;4938894;29;20023;-72
2022/01/25 03:42:59;;;;;;;35.53;17.73;;;;;;;-3.38;100.00;102672.00;5633999;23;20062;-72
2022/01/25 03:45:58;;;;;;;30.85;16.52;;;;;;;-3.52;100.00;102676.16;4958406;28;20033;-72
2022/01/25 03:51:50;;;;;;;34.85;17.85;;;;;;;-3.53;100.00;102665.81;4958994;28;20118;-72
2022/01/25 03:54:35;;;;;;;34.40;17.80;;;;;;;-3.51;100.00;102664.22;4946957;28;20122;-73
2022/01/25 03:57:22;;;;;;;35.75;17.42;;;;;;;-3.69;100.00;102668.09;4958535;28;20467;-72
2022/01/25 04:00:10;;;;;;;37.22;17.42;;;;;;;-3.69;100.00;102669.00;4944893;29;20023;-72
2022/01/25 04:09:12;;;;;;;35.72;17.70;;;;;;;-3.50;100.00;102666.91;5789751;23;20055;-73
2022/01/25 04:11:58;;;;;;;36.63;17.13;;;;;;;-3.53;100.00;102664.16;4957743;29;20094;-72
2022/01/25 04:14:44;;;;;;;36.85;18.33;;;;;;;-3.54;100.00;102661.47;4959002;28;20129;-72
2022/01/25 04:17:30;;;;;;;37.10;17.13;;;;;;;-3.55;100.00;102665.72;4958412;28;20118;-72
2022/01/25 04:20:25;;;;;;;36.92;18.48;;;;;;;-3.65;100.00;102665.88;4944723;28;20324;-72
2022/01/25 04:26:15;;;;;;;34.97;17.40;;;;;;;-3.38;100.00;102667.75;4957789;28;20460;-72
2022/01/25 04:32:55;;;;;;;38.45;18.33;;;;;;;-3.52;100.00;102663.38;4957790;28;20027;-72
2022/01/25 05:03:12;;;;;;;37.63;18.60;;;;;;;-3.80;100.00;102656.19;5654203;23;20275;-73
2022/01/25 05:06:06;;;;;;;36.28;18.38;;;;;;;-3.54;100.00;102652.09;4944524;28;20027;-72
2022/01/25 05:08:55;;;;;;;38.05;18.95;;;;;;;-3.69;100.00;102651.06;4958006;28;20467;-73
2022/01/25 05:11:46;;;;;;;36.92;18.33;;;;;;;-3.81;100.00;102642.53;4944246;28;20042;-72
2022/01/25 05:14:35;;;;;;;38.28;18.73;;;;;;;-3.72;100.00;102637.13;4943841;28;20368;-73
2022/01/25 05:17:30;;;;;;;36.80;18.60;;;;;;;-3.87;100.00;102636.97;4957270;28;20057;-72
2022/01/25 05:23:31;;;;;;;38.83;18.30;;;;;;;-3.87;100.00;102641.22;4914561;29;20035;-72
2022/01/25 05:26:16;;;;;;;37.15;18.85;;;;;;;-3.63;100.00;102645.44;4942657;29;20035;-72
2022/01/25 05:29:02;;;;;;;35.22;17.85;;;;;;;-3.77;100.00;102635.94;4956738;29;20035;-74
2022/01/25 05:31:48;;;;;;;35.13;17.73;;;;;;;-3.57;100.00;102641.69;4958039;28;20110;-76
2022/01/25 05:34:34;;;;;;;37.47;18.42;;;;;;;-3.65;100.00;102641.91;4943167;29;20035;-73
2022/01/25 05:37:20;;;;;;;36.83;18.55;;;;;;;-3.76;100.00;102642.81;4942818;29;20023;-72
2022/01/25 05:40:13;;;;;;;32.22;16.58;;;;;;;-3.76;100.00;102638.59;4957449;29;20023;-73
2022/01/25 05:51:51;;;;;;;36.78;18.35;;;;;;;-3.90;100.00;102635.88;5777089;23;20106;-72
2022/01/25 05:54:40;;;;;;;39.15;18.52;;;;;;;-3.61;100.00;102626.88;4949519;28;20110;-72
2022/01/25 05:57:26;;;;;;;37.72;18.63;;;;;;;-3.50;100.00;102625.91;4956516;28;20105;-71
2022/01/25 06:04:03;;;;;;;32.95;16.75;;;;;;;-3.82;100.00;102619.38;4950742;29;20359;-72
2022/01/25 06:06:50;;;;;;;38.45;18.63;;;;;;;-3.57;100.00;102622.84;4942964;29;20042;-74
2022/01/25 06:09:36;;;;;;;38.53;19.15;;;;;;;-3.53;100.00;102624.84;4955880;29;20110;-73
2022/01/25 06:18:41;;;;;;;33.42;17.35;;;;;;;-3.63;100.00;102614.72;5263556;23;20138;-72
2022/01/25 06:21:27;;;;;;;35.42;18.58;;;;;;;-3.71;100.00;102621.88;4923511;29;20026;-72
2022/01/25 06:24:13;;;;;;;35.63;17.95;;;;;;;-3.51;100.00;102613.91;4938045;29;20039;-72
2022/01/25 06:26:59;;;;;;;40.88;18.88;;;;;;;-3.45;100.00;102613.44;4937746;29;20043;-71
2022/01/25 06:29:46;;;;;;;35.58;18.27;;;;;;;-3.20;100.00;102612.66;4937485;29;20098;-75
2022/01/25 06:32:32;;;;;;;37.63;18.08;;;;;;;-3.12;100.00;102614.03;4922512;29;20106;-73
2022/01/25 06:35:18;;;;;;;35.40;18.45;;;;;;;-3.31;100.00;102608.47;4937079;29;20070;-73
2022/01/25 06:38:04;;;;;;;36.08;18.63;;;;;;;-3.30;100.00;102617.06;4937002;29;20426;-71
2022/01/25 06:40:53;;;;;;;36.13;18.05;;;;;;;-3.39;100.00;102608.72;4936997;29;20123;-72
2022/01/25 06:43:39;;;;;;;37.20;17.27;;;;;;;-3.21;100.00;102602.28;4922716;29;20040;-74
2022/01/25 06:46:25;;;;;;;33.47;17.80;;;;;;;-3.21;100.00;102600.63;4936943;29;20125;-73
2022/01/25 06:49:10;;;;;;;38.05;17.90;;;;;;;-3.43;100.00;102601.59;4923189;29;20430;-74
2022/01/25 06:51:58;;;;;;;39.47;17.58;;;;;;;-3.33;100.00;102597.25;4937447;29;20103;-73
2022/01/25 06:54:43;;;;;;;37.20;17.80;;;;;;;-3.41;100.00;102594.94;4936995;29;20042;-72
2022/01/25 06:57:29;;;;;;;33.88;17.33;;;;;;;-3.26;100.00;102594.28;4936380;29;20032;-73
2022/01/25 07:00:21;;;;;;;31.90;17.05;;;;;;;-3.53;100.00;102588.97;4935886;29;20027;-72
2022/01/25 07:03:07;;;;;;;40.28;18.58;;;;;;;-3.15;100.00;102582.19;4922217;29;20032;-71
2022/01/25 07:05:52;;;;;;;33.70;18.00;;;;;;;-3.24;100.00;102584.13;4938720;29;20409;-73
2022/01/25 07:08:38;;;;;;;35.10;16.70;;;;;;;-2.78;100.00;102583.84;4932564;29;20472;-72
2022/01/25 07:11:24;;;;;;;31.48;16.95;;;;;;;-2.84;100.00;102588.56;4941552;29;20180;-72
2022/01/25 07:14:10;;;;;;;34.67;17.42;;;;;;;-3.02;100.00;102587.34;4939764;29;20031;-72
2022/01/25 07:16:55;;;;;;;33.13;16.83;;;;;;;-2.82;100.00;102587.00;4939881;29;20400;-73
2022/01/25 07:20:15;;;;;;;32.75;16.33;;;;;;;-2.67;100.00;102577.72;4939455;29;20150;-73
2022/01/25 07:23:01;;;;;;;34.65;18.17;;;;;;;-2.44;100.00;102587.78;4938948;29;20110;-73
2022/01/25 07:25:47;;;;;;;48.83;24.05;;;;;;;-2.70;100.00;102588.66;4939672;29;20310;-73
2022/01/25 07:28:33;;;;;;;33.42;16.95;;;;;;;-2.59;100.00;102594.47;4939066;29;20024;-73
2022/01/25 07:31:21;;;;;;;34.70;18.23;;;;;;;-2.64;100.00;102593.31;4939234;29;20036;-75
2022/01/25 07:34:06;;;;;;;37.33;17.35;;;;;;;-2.58;100.00;102593.72;4941492;29;20046;-71
2022/01/25 07:36:52;;;;;;;35.03;17.90;;;;;;;-2.83;100.00;102598.91;4925560;29;20112;-71
2022/01/25 07:39:38;;;;;;;32.78;17.02;;;;;;;-2.28;100.00;102581.16;4938869;29;20106;-72
2022/01/25 07:46:09;;;;;;;33.63;16.80;;;;;;;-2.40;100.00;102587.19;5275921;23;20056;-72
2022/01/25 07:48:56;;;;;;;33.53;17.23;;;;;;;-1.98;100.00;102582.16;4953827;29;20035;-72
2022/01/25 07:51:42;;;;;;;36.00;18.60;;;;;;;-2.31;100.00;102580.06;4957574;29;20023;-72
2022/01/25 07:54:27;;;;;;;32.50;17.15;;;;;;;-1.88;100.00;102581.97;4958433;29;20130;-73
2022/01/25 07:57:13;;;;;;;36.88;19.05;;;;;;;-1.95;100.00;102575.56;4957900;28;20093;-73
2022/01/25 07:59:59;;;;;;;30.27;16.05;;;;;;;-2.43;100.00;102576.72;4944839;29;20114;-72
2022/01/25 08:02:46;;;;;;;32.15;17.02;;;;;;;-1.98;100.00;102580.50;4958402;29;20464;-72
2022/01/25 08:05:35;;;;;;;33.83;17.23;;;;;;;-1.79;100.00;102573.13;4960533;28;20115;-72
2022/01/25 08:08:20;;;;;;;33.35;17.40;;;;;;;-1.61;100.00;102589.66;4944407;29;20058;-72
2022/01/25 08:11:06;;;;;;;35.33;18.33;;;;;;;-1.64;100.00;102591.16;4958560;29;20030;-72
2022/01/25 08:13:59;;;;;;;31.52;16.70;;;;;;;-1.02;100.00;102583.84;4944362;29;20054;-72
2022/01/25 08:16:49;;;;;;;33.00;16.30;;;;;;;-1.41;100.00;102576.34;4958373;28;20023;-73
2022/01/25 08:19:35;;;;;;;34.65;18.20;;;;;;;-1.56;100.00;102570.25;4945043;28;20031;-72
2022/01/25 08:22:26;;;;;;;39.38;17.40;;;;;;;-1.18;100.00;102570.88;4959133;28;20023;-74
2022/01/25 08:25:12;;;;;;;30.52;17.00;;;;;;;-0.85;100.00;102554.81;4959130;28;20054;-73
2022/01/25 08:27:58;;;;;;;34.15;17.13;;;;;;;-0.76;100.00;102560.47;4958891;28;20114;-72
2022/01/25 08:30:44;;;;;;;31.67;16.30;;;;;;;-0.59;100.00;102557.16;4957098;29;20031;-71
2022/01/25 08:33:30;;;;;;;31.38;16.88;;;;;;;-0.64;100.00;102566.31;4958537;28;20062;-73
2022/01/25 08:36:15;;;;;;;33.42;17.85;;;;;;;-1.06;100.00;102569.03;4958195;28;20373;-73
2022/01/25 08:39:04;;;;;;;33.40;16.88;;;;;;;-0.30;100.00;102554.56;4957382;29;20055;-73
2022/01/25 08:41:52;;;;;;;31.63;17.10;;;;;;;-0.55;100.00;102546.25;4958720;28;20032;-72
2022/01/25 08:44:39;;;;;;;35.17;18.10;;;;;;;-0.53;100.00;102552.38;4958292;28;20110;-72
2022/01/25 08:47:25;;;;;;;30.00;17.00;;;;;;;-0.29;100.00;102551.16;4957583;28;20066;-73
2022/01/25 08:50:11;;;;;;;31.23;17.50;;;;;;;-0.62;100.00;102544.16;4957670;29;20142;-72
2022/01/25 08:52:57;;;;;;;33.88;17.70;;;;;;;-0.34;100.00;102546.56;4958252;29;20113;-72
2022/01/25 08:55:43;;;;;;;32.25;17.77;;;;;;;-0.30;100.00;102549.41;4957755;28;20031;-71
2022/01/25 08:58:28;;;;;;;30.52;16.17;;;;;;;0.08;100.00;102553.16;4958711;28;20063;-73
2022/01/25 09:01:14;;;;;;;33.03;16.83;;;;;;;-0.10;100.00;102538.50;4958409;28;20412;-73
2022/01/25 09:04:01;;;;;;;31.35;16.83;;;;;;;-0.07;100.00;102535.19;4958405;28;20106;-73
2022/01/25 09:06:47;;;;;;;31.20;16.40;;;;;;;-0.10;100.00;102532.44;4957456;28;20098;-72
2022/01/25 09:10:29;;;;;;;30.65;16.98;;;;;;;0.03;100.00;102530.63;4957937;28;20098;-73
2022/01/25 09:13:14;;;;;;;30.45;16.63;;;;;;;0.29;100.00;102528.53;4958052;28;20102;-72
2022/01/25 09:16:01;;;;;;;30.13;16.98;;;;;;;0.23;100.00;102517.91;4957428;28;20058;-73
2022/01/25 09:18:47;;;;;;;33.25;17.33;;;;;;;0.29;100.00;102519.09;4958034;28;20353;-73
2022/01/25 09:21:33;;;;;;;30.77;16.73;;;;;;;0.42;100.00;102512.88;4957187;29;20102;-73
2022/01/25 09:24:19;;;;;;;31.27;17.85;;;;;;;0.50;100.00;102516.72;4957011;29;20083;-72
2022/01/25 09:27:08;;;;;;;31.85;17.50;;;;;;;0.20;100.00;102518.59;4956783;28;20027;-72
2022/01/25 09:29:54;;;;;;;30.85;16.95;;;;;;;0.59;100.00;102518.09;4957143;28;20023;-73
2022/01/25 09:32:40;;;;;;;30.40;16.92;;;;;;;0.17;100.00;102510.75;4957971;28;20396;-73
2022/01/25 09:35:26;;;;;;;32.40;17.45;;;;;;;0.42;100.00;102513.78;4943598;28;20043;-72
2022/01/25 09:38:12;;;;;;;29.83;16.08;;;;;;;0.36;100.00;102513.44;4957405;28;20027;-72
2022/01/25 09:40:58;;;;;;;29.23;15.98;;;;;;;0.32;100.00;102508.94;4943482;29;20038;-72
2022/01/25 09:43:44;;;;;;;33.38;16.30;;;;;;;0.64;100.00;102501.16;4957019;29;20066;-72
2022/01/25 09:46:29;;;;;;;28.80;16.17;;;;;;;0.67;99.05;102495.25;4956791;28;20058;-72
2022/01/25 09:49:16;;;;;;;29.52;17.02;;;;;;;0.70;98.03;102498.00;4957087;29;20055;-74
2022/01/25 10:00:57;;;;;;;30.35;16.02;;;;;;;0.26;96.38;102500.00;5216965;23;19989;-71
2022/01/25 10:03:45;;;;;;;34.60;17.27;;;;;;;0.69;96.99;102494.56;4957338;28;20027;-72
2022/01/25 10:06:34;;;;;;;32.45;17.55;;;;;;;1.02;96.91;102490.16;4955818;28;20031;-71
2022/01/25 10:09:21;;;;;;;28.60;15.68;;;;;;;0.89;92.40;102480.97;4942774;29;20177;-72
2022/01/25 10:12:22;;;;;;;31.60;17.10;;;;;;;1.09;91.81;102472.50;4942491;29;20063;-71
2022/01/25 10:15:10;;;;;;;29.80;16.83;;;;;;;1.26;90.89;102470.69;4957011;28;20035;-72
2022/01/25 10:17:56;;;;;;;31.02;16.48;;;;;;;0.76;90.05;102473.41;4957786;28;20066;-72
2022/01/25 10:20:46;;;;;;;27.38;15.60;;;;;;;0.67;90.77;102478.09;4956879;28;20360;-72
2022/01/25 10:23:34;;;;;;;29.52;16.38;;;;;;;0.90;90.88;102469.81;4942291;29;20511;-72
2022/01/25 10:26:23;;;;;;;31.88;17.45;;;;;;;0.72;92.34;102475.78;4956630;28;20039;-73
2022/01/25 10:29:12;;;;;;;28.52;16.52;;;;;;;1.04;92.08;102473.06;4942976;29;20057;-72
2022/01/25 10:32:02;;;;;;;34.00;17.30;;;;;;;1.30;90.34;102459.72;4957090;28;20019;-72
2022/01/25 10:34:49;;;;;;;28.15;16.17;;;;;;;1.57;89.11;102461.00;4944399;29;20466;-71
2022/01/25 10:37:41;;;;;;;28.63;16.25;;;;;;;1.39;87.63;102452.38;4942473;29;20031;-71
2022/01/25 10:40:37;;;;;;;30.30;16.30;;;;;;;1.47;85.72;102456.22;4956430;28;20097;-72
2022/01/25 10:43:25;;;;;;;29.08;15.77;;;;;;;1.32;84.23;102453.78;4946408;29;20027;-72
2022/01/25 10:46:24;;;;;;;33.60;16.52;;;;;;;1.37;85.47;102449.72;4946954;29;20445;-72
2022/01/25 10:49:12;;;;;;;27.38;16.13;;;;;;;1.66;84.45;102444.22;4958641;29;20023;-72
2022/01/25 10:51:59;;;;;;;28.30;15.70;;;;;;;2.06;80.27;102442.63;4960359;28;20024;-72
2022/01/25 10:54:44;;;;;;;24.95;14.60;;;;;;;1.46;79.46;102431.22;4946739;29;20098;-72
2022/01/25 10:57:31;;;;;;;24.55;14.65;;;;;;;1.65;77.87;102431.25;4945525;29;20452;-72
2022/01/25 11:00:16;;;;;;;24.83;14.68;;;;;;;1.80;78.66;102427.66;4960603;28;20133;-72
2022/01/25 11:03:04;;;;;;;27.88;16.17;;;;;;;2.25;78.00;102423.63;4959580;29;20502;-71
2022/01/25 11:05:50;;;;;;;27.63;15.30;;;;;;;2.00;77.79;102419.06;4933709;28;20122;-72
2022/01/25 11:08:37;;;;;;;26.83;14.45;;;;;;;2.28;76.04;102418.56;4959848;29;20042;-72
2022/01/25 11:11:25;;;;;;;27.35;14.85;;;;;;;1.53;76.65;102413.47;4960691;28;20082;-72
2022/01/25 11:17:24;;;;;;;29.15;15.73;;;;;;;1.85;75.21;102394.25;4960194;28;20027;-73
2022/01/25 11:20:09;;;;;;;29.20;15.65;;;;;;;2.18;78.59;102388.88;4959447;29;20027;-73
2022/01/25 11:22:56;;;;;;;28.75;15.02;;;;;;;2.30;78.74;102376.47;4960380;28;20027;-72
2022/01/25 11:25:42;;;;;;;28.67;14.55;;;;;;;2.16;77.40;102374.97;4959793;28;20480;-73
2022/01/25 11:28:34;;;;;;;27.58;14.60;;;;;;;2.19;75.33;102359.59;4959881;28;20035;-73
2022/01/25 11:31:23;;;;;;;27.05;14.80;;;;;;;1.93;76.24;102369.66;4960425;28;20032;-72
2022/01/25 11:34:13;;;;;;;27.48;14.57;;;;;;;1.92;76.89;102362.72;4960764;28;20058;-71
2022/01/25 11:37:04;;;;;;;27.20;15.43;;;;;;;2.01;76.46;102356.22;4959553;28;20035;-71
2022/01/25 11:39:50;;;;;;;29.90;15.65;;;;;;;2.33;75.23;102355.88;4959335;29;20408;-71
2022/01/25 11:46:21;;;;;;;27.85;15.02;;;;;;;2.27;73.88;102334.94;4959629;28;20369;-71
2022/01/25 11:49:17;;;;;;;26.08;15.32;;;;;;;2.55;73.77;102340.44;4959361;29;20027;-72
2022/01/25 11:52:15;;;;;;;28.27;14.32;;;;;;;2.46;72.64;102340.06;4945820;29;20065;-72
2022/01/25 11:55:21;;;;;;;27.67;13.98;;;;;;;2.67;71.05;102332.25;4945684;29;20046;-71
2022/01/25 11:58:09;;;;;;;26.77;15.35;;;;;;;2.48;71.50;102329.75;4945132;29;20106;-72
2022/01/25 12:01:01;;;;;;;29.30;14.88;;;;;;;2.54;72.73;102325.72;4959413;28;20051;-72
2022/01/25 12:03:50;;;;;;;24.25;14.73;;;;;;;2.31;72.57;102330.78;4958700;29;20027;-72
2022/01/25 12:06:49;;;;;;;30.20;15.27;;;;;;;2.48;73.13;102317.72;5353043;23;20075;-71
2022/01/25 12:09:51;;;;;;;27.38;15.23;;;;;;;2.77;72.00;102311.97;4957528;29;20027;-72
2022/01/25 12:12:38;;;;;;;25.67;15.27;;;;;;;2.85;70.71;102313.16;4945217;29;20027;-71
2022/01/25 12:15:24;;;;;;;29.65;15.80;;;;;;;2.70;70.68;102302.19;4943536;28;20031;-73
2022/01/25 12:18:48;;;;;;;26.58;15.48;;;;;;;2.69;70.87;102312.53;4959098;29;20113;-72
2022/01/25 12:21:51;;;;;;;27.90;15.55;;;;;;;2.65;70.50;102302.88;4958616;29;20405;-72
2022/01/25 12:24:43;;;;;;;26.80;14.98;;;;;;;2.97;69.86;102308.47;4944842;29;20133;-72
2022/01/25 12:27:50;;;;;;;32.78;16.38;;;;;;;2.46;70.05;102298.69;4958055;28;20027;-72
2022/01/25 12:30:37;;;;;;;35.28;16.17;;;;;;;2.73;69.16;102296.28;4958644;29;20500;-72
2022/01/25 12:33:25;;;;;;;26.30;15.13;;;;;;;2.63;69.43;102289.88;4959726;28;20472;-74
2022/01/25 12:36:11;;;;;;;25.92;14.70;;;;;;;2.69;69.65;102284.91;4946012;29;20512;-70
2022/01/25 12:38:56;;;;;;;28.02;15.07;;;;;;;2.29;68.76;102275.53;4945348;29;20027;-73
2022/01/25 12:41:44;;;;;;;26.23;14.75;;;;;;;2.24;70.99;102277.94;4944028;29;20042;-71
2022/01/25 12:44:33;;;;;;;30.88;15.75;;;;;;;2.42;70.28;102273.50;4958688;28;20381;-72
2022/01/25 12:47:19;;;;;;;24.95;14.88;;;;;;;2.41;69.00;102273.44;4958947;28;20068;-72
2022/01/25 12:50:07;;;;;;;32.10;15.75;;;;;;;2.47;70.52;102271.97;4957965;29;20337;-71
2022/01/25 12:52:54;;;;;;;29.17;16.08;;;;;;;2.23;71.72;102273.59;4958431;29;20225;-72
2022/01/25 12:55:46;;;;;;;30.33;17.15;;;;;;;2.34;71.43;102268.84;4956272;28;20050;-72
2022/01/25 12:58:33;;;;;;;31.75;17.15;;;;;;;2.35;71.74;102268.91;4957350;29;20069;-72
2022/01/25 13:01:22;;;;;;;31.13;17.30;;;;;;;2.25;72.02;102263.31;4958590;28;20027;-73
2022/01/25 13:04:10;;;;;;;27.75;16.90;;;;;;;2.29;70.98;102266.06;4955529;28;20031;-73
2022/01/25 13:06:55;;;;;;;29.85;17.55;;;;;;;2.12;71.17;102249.00;4957710;28;20070;-73
2022/01/25 13:09:45;;;;;;;30.27;17.27;;;;;;;1.93;70.67;102250.75;4944097;29;20023;-72
2022/01/25 13:12:36;;;;;;;33.90;19.23;;;;;;;1.98;70.87;102252.72;4958082;29;20024;-73
2022/01/25 13:15:39;;;;;;;34.60;18.98;;;;;;;2.16;71.75;102247.41;4943682;28;20023;-73
2022/01/25 13:18:28;;;;;;;35.80;19.75;;;;;;;1.90;71.11;102256.69;4957564;29;20467;-73
2022/01/25 13:21:14;;;;;;;33.03;19.70;;;;;;;1.86;69.28;102257.38;4957239;29;20118;-73
2022/01/25 13:24:00;;;;;;;32.13;18.95;;;;;;;1.80;68.97;102254.53;4957603;29;20212;-72
2022/01/25 13:26:53;;;;;;;32.40;18.55;;;;;;;2.15;68.38;102250.81;4943605;29;20035;-73
2022/01/25 13:32:51;;;;;;;30.17;17.08;;;;;;;1.82;69.32;102241.69;4958356;28;20456;-72
2022/01/25 13:36:14;;;;;;;29.70;16.20;;;;;;;1.81;70.18;102247.66;4957311;28;20376;-73
2022/01/25 13:39:00;;;;;;;29.67;17.13;;;;;;;1.63;69.77;102246.88;4957642;28;20467;-74
2022/01/25 13:41:52;;;;;;;37.50;17.27;;;;;;;1.72;69.59;102244.72;4957302;29;20031;-75
2022/01/25 13:47:54;;;;;;;30.63;16.98;;;;;;;2.16;69.48;102235.38;4957280;28;20027;-72
2022/01/25 13:50:40;;;;;;;28.65;17.02;;;;;;;2.21;68.97;102240.72;4957963;28;20027;-73
2022/01/25 13:53:27;;;;;;;30.20;16.30;;;;;;;2.01;70.04;102242.50;4957223;29;20114;-72
2022/01/25 13:56:15;;;;;;;30.35;16.02;;;;;;;2.19;68.64;102248.44;4957385;28;20303;-73
2022/01/25 13:59:03;;;;;;;27.40;15.13;;;;;;;2.58;66.90;102239.63;4943168;29;20023;-72
2022/01/25 14:01:49;;;;;;;27.77;15.88;;;;;;;2.52;66.60;102239.41;4957918;29;20042;-72
2022/01/25 14:04:38;;;;;;;28.70;15.73;;;;;;;2.62;66.64;102244.09;4942645;29;20122;-72
2022/01/25 14:07:23;;;;;;;31.25;16.20;;;;;;;2.43;66.67;102244.22;4956238;28;20358;-72
2022/01/25 14:10:20;;;;;;;27.33;15.40;;;;;;;2.42;65.65;102239.00;4956649;29;20027;-72
2022/01/25 14:22:43;;;;;;;35.28;16.55;;;;;;;2.25;66.23;102237.44;4957611;28;20096;-72
2022/01/25 14:25:31;;;;;;;32.25;15.70;;;;;;;1.79;67.61;102224.34;4957154;28;20093;-72
2022/01/25 14:28:22;;;;;;;26.05;15.52;;;;;;;2.23;67.46;102229.63;4942767;29;20376;-73
2022/01/25 14:31:37;;;;;;;25.88;15.20;;;;;;;2.15;66.61;102223.28;4942700;29;20046;-72
2022/01/25 14:34:24;;;;;;;31.45;15.65;;;;;;;1.93;66.06;102237.84;4957617;28;20023;-73
2022/01/25 14:37:13;;;;;;;32.05;16.30;;;;;;;2.01;66.46;102228.69;4956779;28;20403;-75
2022/01/25 14:40:39;;;;;;;28.40;15.30;;;;;;;2.12;66.07;102230.00;4956418;29;20431;-71
2022/01/25 14:43:30;;;;;;;27.75;15.10;;;;;;;2.02;65.81;102236.53;4956981;28;20035;-73
2022/01/25 14:46:30;;;;;;;26.65;14.70;;;;;;;1.78;66.21;102237.19;4957008;28;20031;-73
2022/01/25 14:49:26;;;;;;;26.58;15.32;;;;;;;1.86;65.73;102241.88;4956611;29;20027;-73
2022/01/25 14:52:12;;;;;;;30.85;18.05;;;;;;;2.00;66.04;102235.56;4942454;29;20035;-72
2022/01/25 14:54:58;;;;;;;30.70;16.52;;;;;;;2.06;66.23;102230.66;4956403;29;20023;-72
2022/01/25 14:58:01;;;;;;;30.27;16.67;;;;;;;2.03;67.51;102235.69;4956330;28;20055;-72
2022/01/25 15:00:52;;;;;;;31.30;16.30;;;;;;;2.45;65.72;102237.41;4957370;29;20051;-73
2022/01/25 15:03:39;;;;;;;36.55;16.95;;;;;;;2.36;65.99;102226.69;4955765;29;20031;-73
2022/01/25 15:06:25;;;;;;;29.85;15.30;;;;;;;1.86;67.42;102221.22;4956105;28;20373;-72
2022/01/25 15:09:12;;;;;;;29.10;16.27;;;;;;;2.03;67.39;102216.72;4942378;29;20493;-71
2022/01/25 15:11:59;;;;;;;29.75;16.52;;;;;;;2.19;67.45;102221.69;4956086;29;20178;-72
2022/01/25 15:14:58;;;;;;;29.70;15.57;;;;;;;1.85;67.49;102210.81;4956364;28;20054;-72
2022/01/25 15:17:44;;;;;;;30.15;15.93;;;;;;;1.95;67.05;102211.25;4956242;29;20457;-72
2022/01/25 15:20:30;;;;;;;26.77;15.63;;;;;;;2.00;67.90;102201.97;4955978;29;20035;-72
2022/01/25 15:23:29;;;;;;;34.92;15.45;;;;;;;1.75;68.09;102206.97;4956090;29;20094;-73
2022/01/25 15:26:17;;;;;;;30.75;17.48;;;;;;;1.60;68.55;102208.88;4956661;28;20031;-70
2022/01/25 15:29:06;;;;;;;26.85;15.43;;;;;;;1.66;67.97;102208.28;4959904;29;20041;-73
2022/01/25 15:31:58;;;;;;;31.95;16.00;;;;;;;2.11;67.46;102208.47;4945721;29;20046;-72
2022/01/25 15:34:44;;;;;;;30.17;16.45;;;;;;;1.71;67.75;102215.41;4946327;29;20027;-72
2022/01/25 15:37:30;;;;;;;35.97;17.05;;;;;;;1.59;68.73;102219.16;4959761;28;20031;-72
2022/01/25 15:40:16;;;;;;;32.45;17.33;;;;;;;1.22;69.99;102219.28;4959981;28;20102;-73
2022/01/25 15:43:03;;;;;;;30.88;16.35;;;;;;;1.52;70.30;102223.19;4959867;28;20401;-72
2022/01/25 15:46:03;;;;;;;32.30;16.60;;;;;;;1.17;71.84;102227.63;4959072;28;20397;-73
2022/01/25 15:48:49;;;;;;;29.70;16.20;;;;;;;1.35;71.92;102223.28;4945498;29;20035;-73
2022/01/25 15:51:35;;;;;;;33.85;17.38;;;;;;;1.25;72.69;102219.44;4959468;28;20367;-73
2022/01/25 15:54:22;;;;;;;32.58;16.38;;;;;;;0.99;73.67;102219.97;4959107;29;20132;-73
2022/01/25 15:57:09;;;;;;;30.08;16.15;;;;;;;1.24;72.95;102215.06;4958754;28;20059;-72
2022/01/25 15:59:55;;;;;;;26.48;15.05;;;;;;;1.16;72.64;102213.84;4945628;29;20067;-72
2022/01/25 16:02:41;;;;;;;28.92;14.68;;;;;;;0.91;71.91;102221.31;4959001;29;20460;-71
2022/01/25 16:05:27;;;;;;;32.25;15.77;;;;;;;1.16;72.42;102210.41;4959427;28;20058;-73
2022/01/25 16:08:16;;;;;;;34.63;16.90;;;;;;;0.92;71.87;102224.78;4958974;29;20047;-73
2022/01/25 16:11:05;;;;;;;31.25;15.55;;;;;;;0.65;71.72;102223.53;4959203;29;20110;-73
2022/01/25 16:13:50;;;;;;;30.92;16.08;;;;;;;0.76;72.28;102218.03;4958873;29;20421;-72
2022/01/25 16:16:36;;;;;;;30.60;15.52;;;;;;;1.04;71.82;102218.47;4958735;28;20027;-72
2022/01/25 16:19:22;;;;;;;33.22;16.52;;;;;;;0.91;72.11;102217.84;4945351;29;20042;-72
2022/01/25 16:22:09;;;;;;;32.85;16.33;;;;;;;0.84;71.79;102214.09;4944652;29;20034;-72
2022/01/25 16:24:54;;;;;;;30.60;16.38;;;;;;;0.65;72.73;102214.09;4945151;29;20457;-72
2022/01/25 16:27:40;;;;;;;28.20;16.35;;;;;;;0.83;73.28;102222.66;4957966;28;20023;-73